Terminal Aerodrome Forecast
Issued by NWS

Home | Current Version | Previous Version | Text Only | Print | Product List | Glossary On
Versions: 1 2 3 4 5 6 7 8 9 10 11 12 13 14 15 16 17 18 19 20
000
FTUS46 KEKA 250500 RRA
TAFCEC
TAF
KCEC 250542Z 2506/2606 15003KT 6SM BR SCT040 OVC060
     FM250900 14003KT 5SM -DZ BR SCT015 BKN025 OVC060
     FM251600 25004KT P6SM VCSH SCT025 BKN120
     FM252200 31010KT P6SM SCT040 BKN100=

USA.gov is the U.S. government's official web portal to all federal, state and local government web resources and services.